Time;durP1;ratioP1;P1;durP2;ratioP2;P2;SDS_P1;SDS_P2;PMS_P1;PMS_P2;Temp;Humidity;BMP_temperature;BMP_pressure;BME280_temperature;BME280_humidity;BME280_pressure;Samples;Min_cycle;Max_cycle;Signal;HPM_P1;HPM_P2
2022/01/15 00:01:00;;;;;;;20.38;12.38;;;;;;;;;;5110036;28;20097;-52
2022/01/15 00:03:27;;;;;;;21.77;13.35;;;;;;;;;;5109915;28;20142;-50
2022/01/15 00:05:54;;;;;;;22.52;12.18;;;;;;;;;;5109827;28;20039;-52
2022/01/15 00:08:26;;;;;;;18.73;12.00;;;;;;;;;;5110001;28;20123;-52
2022/01/15 00:10:54;;;;;;;21.60;11.68;;;;;;;;;;5109557;28;20489;-51
2022/01/15 00:13:25;;;;;;;21.48;12.00;;;;;;;;;;5109273;28;20035;-54
2022/01/15 00:16:02;;;;;;;23.73;12.90;;;;;;;;;;5109506;28;20039;-50
2022/01/15 00:18:41;;;;;;;24.05;12.77;;;;;;;;;;5109932;28;20078;-52
2022/01/15 00:21:07;;;;;;;24.52;12.18;;;;;;;;;;5109350;28;20100;-52
2022/01/15 00:23:33;;;;;;;20.73;12.00;;;;;;;;;;5109410;28;20108;-51
2022/01/15 00:26:02;;;;;;;25.20;14.32;;;;;;;;;;5109601;28;20484;-50
2022/01/15 00:28:28;;;;;;;19.98;11.77;;;;;;;;;;5091401;28;20447;-50
2022/01/15 00:30:54;;;;;;;19.48;11.57;;;;;;;;;;5109366;28;20036;-49
2022/01/15 00:33:20;;;;;;;19.40;11.93;;;;;;;;;;5112587;28;20035;-50
2022/01/15 00:35:46;;;;;;;20.42;12.10;;;;;;;;;;5113331;28;20078;-50
2022/01/15 00:38:12;;;;;;;30.15;13.70;;;;;;;;;;5113067;28;20047;-49
2022/01/15 00:40:38;;;;;;;24.35;11.95;;;;;;;;;;5113570;28;20035;-49
2022/01/15 00:43:04;;;;;;;23.35;12.25;;;;;;;;;;5113388;28;20039;-51
2022/01/15 00:45:33;;;;;;;23.33;12.35;;;;;;;;;;5113185;28;20044;-50
2022/01/15 00:47:59;;;;;;;24.73;12.65;;;;;;;;;;5112890;28;20054;-53
2022/01/15 00:50:25;;;;;;;21.27;11.98;;;;;;;;;;5112943;28;20077;-52
2022/01/15 00:52:53;;;;;;;20.45;11.82;;;;;;;;;;5112636;28;20298;-51
2022/01/15 00:55:19;;;;;;;21.73;11.80;;;;;;;;;;5113108;28;20110;-49
2022/01/15 00:57:54;;;;;;;23.73;12.70;;;;;;;;;;5113075;28;20055;-52
2022/01/15 01:00:22;;;;;;;21.92;12.07;;;;;;;;;;5113050;28;20047;-49
2022/01/15 01:02:48;;;;;;;17.65;10.63;;;;;;;;;;5094197;28;20039;-51
2022/01/15 01:05:14;;;;;;;25.85;12.60;;;;;;;;;;5111293;28;20039;-52
2022/01/15 01:07:41;;;;;;;22.00;11.60;;;;;;;;;;5095573;28;20073;-52
2022/01/15 01:23:48;;;;;;;21.77;10.50;;;;;;;;;;5091929;28;20437;-52
2022/01/15 01:26:32;;;;;;;24.45;12.50;;;;;;;;;;5073844;28;20405;-51
2022/01/15 01:29:12;;;;;;;22.45;11.20;;;;;;;;;;5091971;28;20147;-50
2022/01/15 01:31:53;;;;;;;18.95;9.95;;;;;;;;;;5091386;28;20040;-52
2022/01/15 01:34:19;;;;;;;16.15;8.77;;;;;;;;;;5091636;28;20035;-50
2022/01/15 01:39:21;;;;;;;15.00;8.50;;;;;;;;;;5091980;28;20119;-49
2022/01/15 01:42:08;;;;;;;15.88;8.48;;;;;;;;;;5091712;28;20051;-48
2022/01/15 01:44:39;;;;;;;18.52;9.18;;;;;;;;;;5091863;28;20097;-51
2022/01/15 01:47:15;;;;;;;18.60;9.20;;;;;;;;;;5091709;28;20515;-49
2022/01/15 01:49:58;;;;;;;15.38;9.18;;;;;;;;;;5091621;28;20047;-51
2022/01/15 01:52:33;;;;;;;15.32;8.05;;;;;;;;;;5073119;28;20401;-51
2022/01/15 01:55:05;;;;;;;16.38;8.43;;;;;;;;;;5091862;28;20477;-54
2022/01/15 01:57:55;;;;;;;15.13;8.05;;;;;;;;;;5091326;28;20044;-48
2022/01/15 02:00:23;;;;;;;13.13;7.28;;;;;;;;;;5091464;28;20054;-51
2022/01/15 02:02:49;;;;;;;14.27;6.60;;;;;;;;;;5090799;28;20074;-50
2022/01/15 02:05:36;;;;;;;10.52;5.95;;;;;;;;;;5090781;28;20055;-49
2022/01/15 02:08:05;;;;;;;8.10;5.32;;;;;;;;;;5091235;28;20052;-49
2022/01/15 02:10:31;;;;;;;9.18;5.20;;;;;;;;;;5091473;28;20074;-50
2022/01/15 02:12:57;;;;;;;9.57;4.90;;;;;;;;;;5091473;28;20072;-49
2022/01/15 02:15:24;;;;;;;8.95;5.03;;;;;;;;;;5091519;28;20382;-49
2022/01/15 02:17:51;;;;;;;6.88;4.20;;;;;;;;;;5091523;28;20445;-48
2022/01/15 02:25:51;;;;;;;5.32;3.78;;;;;;;;;;5091148;28;20044;-48
2022/01/15 02:28:22;;;;;;;7.15;3.92;;;;;;;;;;5091745;28;20036;-51
2022/01/15 02:30:54;;;;;;;6.03;4.30;;;;;;;;;;5091698;28;20036;-48
2022/01/15 02:33:21;;;;;;;6.93;4.10;;;;;;;;;;5091263;28;20040;-47
2022/01/15 02:35:51;;;;;;;6.65;3.95;;;;;;;;;;5091327;28;20093;-49
2022/01/15 02:38:21;;;;;;;5.95;3.65;;;;;;;;;;5091642;28;20393;-48
2022/01/15 02:41:00;;;;;;;5.95;3.88;;;;;;;;;;5090943;28;20036;-54
2022/01/15 02:43:32;;;;;;;6.88;3.75;;;;;;;;;;5072240;28;20040;-47
2022/01/15 02:46:08;;;;;;;6.20;4.10;;;;;;;;;;5099191;28;20051;-48
2022/01/15 02:48:36;;;;;;;4.70;3.17;;;;;;;;;;5090870;28;20040;-48
2022/01/15 02:51:02;;;;;;;4.80;3.08;;;;;;;;;;5072298;28;20047;-49
2022/01/15 02:53:31;;;;;;;4.68;3.15;;;;;;;;;;5090730;28;20115;-47
2022/01/15 02:55:57;;;;;;;5.07;3.40;;;;;;;;;;5090285;28;20040;-49
2022/01/15 02:58:27;;;;;;;6.03;3.10;;;;;;;;;;5091278;28;20051;-48
2022/01/15 03:00:54;;;;;;;5.75;2.83;;;;;;;;;;5072697;28;20047;-50
2022/01/15 03:03:20;;;;;;;6.70;3.40;;;;;;;;;;5090869;28;20036;-48
2022/01/15 03:05:46;;;;;;;4.88;2.97;;;;;;;;;;5091102;28;20040;-47
2022/01/15 03:08:12;;;;;;;4.25;2.83;;;;;;;;;;5090846;28;20036;-47
2022/01/15 03:10:38;;;;;;;5.55;3.15;;;;;;;;;;5090800;28;20036;-48
2022/01/15 03:13:11;;;;;;;5.60;2.97;;;;;;;;;;5072495;28;20493;-48
2022/01/15 03:15:41;;;;;;;5.53;2.80;;;;;;;;;;5072237;28;20040;-48
2022/01/15 03:18:07;;;;;;;4.40;2.75;;;;;;;;;;5090840;28;20096;-52
2022/01/15 03:20:33;;;;;;;4.28;2.55;;;;;;;;;;5072322;28;20588;-47
2022/01/15 03:22:59;;;;;;;3.90;2.38;;;;;;;;;;5090384;28;20047;-49
2022/01/15 03:25:26;;;;;;;3.17;2.40;;;;;;;;;;5072179;28;20081;-48
2022/01/15 03:27:52;;;;;;;2.97;1.90;;;;;;;;;;5090252;28;20036;-48
2022/01/15 03:30:18;;;;;;;2.70;1.92;;;;;;;;;;5090764;28;20043;-52
2022/01/15 03:32:50;;;;;;;2.58;1.85;;;;;;;;;;5089999;28;20047;-51
2022/01/15 03:35:17;;;;;;;3.97;2.17;;;;;;;;;;5090420;28;20113;-48
2022/01/15 03:37:43;;;;;;;3.58;2.55;;;;;;;;;;5089962;28;20051;-47
2022/01/15 03:40:11;;;;;;;3.65;2.25;;;;;;;;;;5090231;28;20061;-47
2022/01/15 03:42:38;;;;;;;2.50;2.15;;;;;;;;;;5071483;28;20520;-49
2022/01/15 03:45:08;;;;;;;2.75;2.30;;;;;;;;;;5090009;28;20508;-47
2022/01/15 03:47:34;;;;;;;3.15;2.35;;;;;;;;;;5089985;28;20149;-48
2022/01/15 03:50:00;;;;;;;3.80;2.33;;;;;;;;;;5072413;28;20909;-47
2022/01/15 03:52:26;;;;;;;3.63;2.63;;;;;;;;;;5089531;28;20125;-50
2022/01/15 03:54:52;;;;;;;3.15;2.42;;;;;;;;;;5087704;28;20051;-50
2022/01/15 03:57:19;;;;;;;4.57;2.80;;;;;;;;;;5090130;28;20340;-48
2022/01/15 03:59:45;;;;;;;4.13;3.17;;;;;;;;;;5089762;28;20051;-48
2022/01/15 04:02:11;;;;;;;3.95;2.90;;;;;;;;;;5089331;28;20036;-48
2022/01/15 04:04:37;;;;;;;4.18;2.80;;;;;;;;;;5090134;28;20397;-48
2022/01/15 04:07:06;;;;;;;6.15;3.30;;;;;;;;;;5093093;28;20036;-47
2022/01/15 04:09:32;;;;;;;4.25;2.90;;;;;;;;;;5093715;28;20040;-47
2022/01/15 04:11:58;;;;;;;4.57;3.28;;;;;;;;;;5093470;28;20042;-52
2022/01/15 04:14:24;;;;;;;4.78;3.30;;;;;;;;;;5093810;28;20111;-50
2022/01/15 04:16:51;;;;;;;5.07;3.00;;;;;;;;;;5075321;28;20054;-48
2022/01/15 04:19:28;;;;;;;3.67;3.05;;;;;;;;;;5093908;28;20374;-48
2022/01/15 04:21:54;;;;;;;5.93;3.45;;;;;;;;;;5093292;28;20044;-47
2022/01/15 04:24:23;;;;;;;5.03;3.42;;;;;;;;;;5093237;28;20048;-50
2022/01/15 04:26:49;;;;;;;4.30;3.10;;;;;;;;;;5093501;28;20096;-51
2022/01/15 04:29:15;;;;;;;5.75;3.65;;;;;;;;;;5093053;28;20036;-49
2022/01/15 04:31:48;;;;;;;5.45;3.78;;;;;;;;;;5092823;28;20075;-49
2022/01/15 04:34:19;;;;;;;4.32;2.95;;;;;;;;;;5092593;28;20054;-49
2022/01/15 04:36:45;;;;;;;4.55;3.20;;;;;;;;;;5093408;28;20499;-48
2022/01/15 04:39:12;;;;;;;5.28;3.70;;;;;;;;;;5092777;28;20173;-50
2022/01/15 04:41:41;;;;;;;7.00;4.30;;;;;;;;;;5092564;28;20046;-48
2022/01/15 04:44:08;;;;;;;7.10;4.60;;;;;;;;;;5092976;28;20048;-48
2022/01/15 04:46:36;;;;;;;8.13;4.78;;;;;;;;;;5093055;28;20423;-48
2022/01/15 04:49:02;;;;;;;7.47;4.03;;;;;;;;;;5092990;28;20097;-47
2022/01/15 04:51:28;;;;;;;6.18;4.07;;;;;;;;;;5092501;28;20512;-48
2022/01/15 04:53:54;;;;;;;5.32;3.72;;;;;;;;;;5092761;28;20043;-48
2022/01/15 04:56:24;;;;;;;5.80;4.32;;;;;;;;;;5074870;28;20036;-51
2022/01/15 04:58:50;;;;;;;6.13;4.15;;;;;;;;;;5092725;28;20038;-48
2022/01/15 05:01:16;;;;;;;6.32;3.78;;;;;;;;;;5092568;28;20478;-49
2022/01/15 05:03:42;;;;;;;6.97;4.28;;;;;;;;;;5092143;28;20048;-48
2022/01/15 05:06:10;;;;;;;5.75;4.03;;;;;;;;;;5092520;28;20119;-48
2022/01/15 05:08:36;;;;;;;5.78;3.45;;;;;;;;;;5092127;28;20555;-48
2022/01/15 05:11:12;;;;;;;7.03;3.58;;;;;;;;;;5091520;28;20036;-48
2022/01/15 05:13:40;;;;;;;5.78;3.92;;;;;;;;;;5092519;28;20040;-48
2022/01/15 05:16:07;;;;;;;6.85;3.75;;;;;;;;;;5092033;28;20032;-48
2022/01/15 05:18:33;;;;;;;6.97;4.20;;;;;;;;;;5091283;28;20089;-47
2022/01/15 05:20:59;;;;;;;7.03;4.30;;;;;;;;;;5091653;28;20039;-48
2022/01/15 05:23:26;;;;;;;7.65;4.18;;;;;;;;;;5091790;28;20055;-48
2022/01/15 05:25:55;;;;;;;7.63;4.50;;;;;;;;;;5091967;28;20052;-49
2022/01/15 05:28:39;;;;;;;8.52;5.63;;;;;;;;;;5092192;28;20044;-49
2022/01/15 05:31:10;;;;;;;9.73;5.30;;;;;;;;;;5091675;28;20174;-48
2022/01/15 05:33:36;;;;;;;8.90;4.97;;;;;;;;;;5091929;28;20433;-48
2022/01/15 05:36:02;;;;;;;8.23;4.90;;;;;;;;;;5091567;28;20076;-48
2022/01/15 05:38:28;;;;;;;10.65;6.38;;;;;;;;;;5092150;28;20497;-48
2022/01/15 05:40:54;;;;;;;17.02;10.65;;;;;;;;;;5091418;28;20123;-50
2022/01/15 05:43:23;;;;;;;19.33;11.50;;;;;;;;;;5091456;28;20146;-48
2022/01/15 05:45:50;;;;;;;15.07;10.02;;;;;;;;;;5093509;28;20039;-48
2022/01/15 05:48:19;;;;;;;12.45;9.45;;;;;;;;;;5099819;28;20048;-48
2022/01/15 05:50:45;;;;;;;15.38;8.43;;;;;;;;;;5091358;28;20512;-51
2022/01/15 05:53:11;;;;;;;17.23;7.95;;;;;;;;;;5091210;28;20043;-48
2022/01/15 05:55:40;;;;;;;16.35;10.25;;;;;;;;;;5091538;28;20425;-48
2022/01/15 05:58:09;;;;;;;16.10;9.25;;;;;;;;;;5092333;28;20039;-50
2022/01/15 06:00:38;;;;;;;15.68;9.38;;;;;;;;;;5091821;28;20040;-49
2022/01/15 06:03:07;;;;;;;18.23;11.15;;;;;;;;;;5091634;28;20078;-48
2022/01/15 06:05:33;;;;;;;19.77;10.93;;;;;;;;;;5092098;28;20260;-50
2022/01/15 06:07:59;;;;;;;15.80;9.68;;;;;;;;;;5091476;28;20092;-49
2022/01/15 06:10:25;;;;;;;16.65;10.23;;;;;;;;;;5091606;28;20291;-51
2022/01/15 06:12:54;;;;;;;13.18;8.73;;;;;;;;;;5073385;28;20401;-53
2022/01/15 06:15:20;;;;;;;16.83;9.55;;;;;;;;;;5091158;28;20047;-50
2022/01/15 06:17:46;;;;;;;16.60;9.60;;;;;;;;;;5091537;28;20123;-49
2022/01/15 06:20:15;;;;;;;16.25;9.77;;;;;;;;;;5073692;28;20052;-49
2022/01/15 06:22:41;;;;;;;15.23;10.07;;;;;;;;;;5091266;28;20050;-49
2022/01/15 06:25:08;;;;;;;15.13;9.95;;;;;;;;;;5091168;28;20119;-50
2022/01/15 06:27:39;;;;;;;13.45;9.18;;;;;;;;;;5091473;28;20047;-47
2022/01/15 06:30:05;;;;;;;16.25;8.88;;;;;;;;;;5090849;28;20040;-47
2022/01/15 06:32:36;;;;;;;17.48;9.75;;;;;;;;;;5090683;28;20035;-49
2022/01/15 06:35:05;;;;;;;16.10;9.20;;;;;;;;;;5091784;28;20047;-48
2022/01/15 06:37:31;;;;;;;15.43;9.15;;;;;;;;;;5091200;28;20051;-49
2022/01/15 06:40:03;;;;;;;14.73;9.50;;;;;;;;;;5091066;28;20036;-48
2022/01/15 06:42:32;;;;;;;14.45;8.90;;;;;;;;;;5091214;28;20063;-47
2022/01/15 06:44:58;;;;;;;17.88;9.32;;;;;;;;;;5091311;28;20044;-48
2022/01/15 06:47:30;;;;;;;16.25;9.52;;;;;;;;;;5090917;28;20075;-50
2022/01/15 06:49:58;;;;;;;22.02;9.70;;;;;;;;;;5091215;28;20036;-48
2022/01/15 06:52:27;;;;;;;16.27;9.27;;;;;;;;;;5090360;28;20442;-50
2022/01/15 06:54:53;;;;;;;17.70;9.52;;;;;;;;;;5090837;28;20047;-50
2022/01/15 06:57:19;;;;;;;15.65;9.02;;;;;;;;;;5091188;28;20036;-47
2022/01/15 06:59:48;;;;;;;14.13;8.50;;;;;;;;;;5090884;28;20075;-49
2022/01/15 07:02:14;;;;;;;14.23;8.18;;;;;;;;;;5091204;28;20079;-48
2022/01/15 07:04:40;;;;;;;8.82;6.32;;;;;;;;;;5090914;28;20574;-47
2022/01/15 07:07:06;;;;;;;14.73;7.40;;;;;;;;;;5090977;28;20043;-50
2022/01/15 07:09:35;;;;;;;12.95;7.20;;;;;;;;;;5090886;28;20443;-49
2022/01/15 07:12:02;;;;;;;13.20;7.10;;;;;;;;;;5072353;28;20036;-51
2022/01/15 07:14:31;;;;;;;11.48;7.65;;;;;;;;;;5090496;28;20040;-49
2022/01/15 07:17:00;;;;;;;12.15;7.43;;;;;;;;;;5090664;28;20044;-53
2022/01/15 07:19:26;;;;;;;11.88;7.32;;;;;;;;;;5090725;28;20041;-49
2022/01/15 07:21:52;;;;;;;12.05;7.55;;;;;;;;;;5090013;28;20040;-50
2022/01/15 07:24:21;;;;;;;12.52;7.45;;;;;;;;;;5090602;28;20043;-50
2022/01/15 07:26:49;;;;;;;14.68;8.02;;;;;;;;;;5090639;28;20040;-49
2022/01/15 07:29:16;;;;;;;11.63;7.50;;;;;;;;;;5072384;28;20089;-49
2022/01/15 07:31:44;;;;;;;15.73;7.90;;;;;;;;;;5090045;28;20088;-50
2022/01/15 07:34:11;;;;;;;14.40;7.38;;;;;;;;;;5089745;28;20040;-49
2022/01/15 07:36:38;;;;;;;13.45;6.95;;;;;;;;;;5104263;28;20039;-48
2022/01/15 07:39:05;;;;;;;12.35;7.00;;;;;;;;;;5100042;28;20115;-49
2022/01/15 07:41:31;;;;;;;12.65;7.28;;;;;;;;;;5100950;28;20043;-49
2022/01/15 07:44:03;;;;;;;11.93;7.03;;;;;;;;;;5104428;28;20035;-49
2022/01/15 07:46:29;;;;;;;8.73;6.00;;;;;;;;;;5106193;28;20086;-49
2022/01/15 07:49:01;;;;;;;12.20;7.05;;;;;;;;;;5111788;28;20448;-51
2022/01/15 07:51:27;;;;;;;11.82;6.95;;;;;;;;;;5102823;28;20075;-49
2022/01/15 07:53:53;;;;;;;12.30;7.70;;;;;;;;;;5093879;28;20043;-47
2022/01/15 07:56:19;;;;;;;12.40;7.47;;;;;;;;;;5098887;28;20032;-48
2022/01/15 07:58:45;;;;;;;12.65;7.78;;;;;;;;;;5092207;28;20094;-47
2022/01/15 08:01:12;;;;;;;13.38;7.45;;;;;;;;;;5105298;28;20040;-47
2022/01/15 08:03:43;;;;;;;11.45;6.97;;;;;;;;;;5098001;28;20058;-48
2022/01/15 08:06:10;;;;;;;11.52;6.97;;;;;;;;;;5095047;28;20067;-47
2022/01/15 08:08:40;;;;;;;15.32;9.25;;;;;;;;;;5101125;28;20048;-48
2022/01/15 08:11:12;;;;;;;14.52;7.93;;;;;;;;;;5095805;28;20040;-49
2022/01/15 08:13:38;;;;;;;15.15;8.25;;;;;;;;;;5079683;28;20040;-49
2022/01/15 08:16:04;;;;;;;17.25;9.65;;;;;;;;;;5105784;28;20040;-50
2022/01/15 08:18:32;;;;;;;17.17;8.77;;;;;;;;;;5097914;28;20382;-48
2022/01/15 08:20:58;;;;;;;16.70;9.27;;;;;;;;;;5094012;28;20494;-48
2022/01/15 08:23:24;;;;;;;19.63;11.55;;;;;;;;;;5098235;28;20063;-49
2022/01/15 08:25:58;;;;;;;18.75;10.35;;;;;;;;;;5094799;28;20036;-48
2022/01/15 08:28:24;;;;;;;;;;;;;;;;;;5094246;28;20435;-48
2022/01/15 08:30:50;;;;;;;18.02;10.40;;;;;;;;;;5093674;28;19972;-49
2022/01/15 08:33:22;;;;;;;21.73;10.77;;;;;;;;;;5092023;28;20527;-49
2022/01/15 08:35:52;;;;;;;23.02;10.35;;;;;;;;;;5098648;28;20508;-51
2022/01/15 08:38:18;;;;;;;20.33;11.25;;;;;;;;;;5073561;28;20417;-48
2022/01/15 08:40:44;;;;;;;21.52;13.32;;;;;;;;;;5078287;28;20056;-48
2022/01/15 08:43:10;;;;;;;22.83;12.18;;;;;;;;;;5104002;28;20036;-46
2022/01/15 08:45:39;;;;;;;25.00;12.15;;;;;;;;;;5069567;28;20047;-51
2022/01/15 08:48:05;;;;;;;21.58;11.32;;;;;;;;;;5097142;28;20115;-48
2022/01/15 08:50:31;;;;;;;25.35;13.10;;;;;;;;;;5076655;28;20040;-48
2022/01/15 08:52:57;;;;;;;23.08;13.90;;;;;;;;;;5092027;28;20070;-47
2022/01/15 08:55:29;;;;;;;22.40;11.88;;;;;;;;;;5101612;28;20093;-50
2022/01/15 08:57:56;;;;;;;20.73;12.18;;;;;;;;;;5102881;28;20036;-48
2022/01/15 09:00:22;;;;;;;23.17;11.85;;;;;;;;;;5105764;28;20048;-48
2022/01/15 09:02:54;;;;;;;25.23;13.90;;;;;;;;;;5104078;28;20233;-50
2022/01/15 09:05:24;;;;;;;21.80;12.65;;;;;;;;;;5101333;28;20032;-47
2022/01/15 09:07:54;;;;;;;23.13;12.25;;;;;;;;;;5101423;28;20085;-49
2022/01/15 09:10:28;;;;;;;27.80;17.38;;;;;;;;;;5106648;28;20039;-51
2022/01/15 09:12:57;;;;;;;24.98;14.45;;;;;;;;;;5114215;28;20114;-49
2022/01/15 09:15:23;;;;;;;23.50;13.27;;;;;;;;;;5113593;28;20051;-47
2022/01/15 09:17:49;;;;;;;26.77;15.02;;;;;;;;;;5112501;28;20043;-49
2022/01/15 09:20:18;;;;;;;25.33;13.70;;;;;;;;;;5112776;28;20047;-49
2022/01/15 09:22:44;;;;;;;26.25;13.95;;;;;;;;;;5111941;28;20036;-49
2022/01/15 09:25:11;;;;;;;24.98;12.95;;;;;;;;;;5112786;28;20043;-50
2022/01/15 09:30:24;;;;;;;23.15;13.18;;;;;;;;;;5106318;28;20036;-48
2022/01/15 09:32:52;;;;;;;21.75;13.18;;;;;;;;;;5102705;28;20085;-50
2022/01/15 09:35:20;;;;;;;19.90;11.82;;;;;;;;;;5093204;28;20097;-51
2022/01/15 09:37:50;;;;;;;16.27;9.93;;;;;;;;;;5094383;28;20044;-49
2022/01/15 09:40:17;;;;;;;19.67;11.68;;;;;;;;;;5099285;28;20051;-51
2022/01/15 09:42:47;;;;;;;16.77;10.75;;;;;;;;;;5090790;28;20054;-52
2022/01/15 09:45:15;;;;;;;18.17;11.32;;;;;;;;;;5111787;28;20047;-48
2022/01/15 09:47:42;;;;;;;21.83;11.55;;;;;;;;;;5111674;28;20047;-49
2022/01/15 09:50:10;;;;;;;21.35;12.30;;;;;;;;;;5110633;28;20123;-49
2022/01/15 09:52:36;;;;;;;19.60;12.10;;;;;;;;;;5108448;28;20450;-49
2022/01/15 09:55:04;;;;;;;20.25;12.82;;;;;;;;;;5100277;28;20522;-49
2022/01/15 09:57:33;;;;;;;20.83;11.90;;;;;;;;;;5094521;28;20118;-49
2022/01/15 10:00:01;;;;;;;20.77;13.30;;;;;;;;;;5095707;28;20050;-48
2022/01/15 10:02:29;;;;;;;22.58;14.55;;;;;;;;;;5096913;28;20124;-49
2022/01/15 10:04:56;;;;;;;22.15;13.82;;;;;;;;;;5104783;28;20093;-47
2022/01/15 10:07:25;;;;;;;23.98;14.10;;;;;;;;;;5101831;28;20036;-47
2022/01/15 10:09:58;;;;;;;23.67;14.65;;;;;;;;;;5093915;28;20522;-47
2022/01/15 10:12:24;;;;;;;23.80;13.73;;;;;;;;;;5088284;28;20444;-47
2022/01/15 10:14:57;;;;;;;22.40;13.63;;;;;;;;;;5087910;28;20199;-48
2022/01/15 10:17:27;;;;;;;24.45;14.10;;;;;;;;;;5079439;28;20044;-48
2022/01/15 10:19:54;;;;;;;24.90;14.68;;;;;;;;;;5093449;28;20132;-48
2022/01/15 10:22:21;;;;;;;23.33;14.40;;;;;;;;;;5088007;28;20374;-48
2022/01/15 10:24:52;;;;;;;26.55;16.05;;;;;;;;;;5103527;28;20035;-51
2022/01/15 10:27:25;;;;;;;26.00;15.57;;;;;;;;;;5101632;28;20500;-47
2022/01/15 10:29:59;;;;;;;24.17;15.63;;;;;;;;;;5093519;28;20031;-50
2022/01/15 10:32:26;;;;;;;26.45;15.13;;;;;;;;;;5095140;28;20043;-47
2022/01/15 10:34:57;;;;;;;23.20;14.55;;;;;;;;;;5077826;28;20035;-52
2022/01/15 10:37:37;;;;;;;21.85;14.43;;;;;;;;;;5082226;28;20120;-50
2022/01/15 10:40:06;;;;;;;25.77;14.55;;;;;;;;;;5080866;28;20381;-49
2022/01/15 10:42:35;;;;;;;24.73;16.38;;;;;;;;;;5078439;28;20114;-49
2022/01/15 10:45:09;;;;;;;24.50;14.63;;;;;;;;;;5097626;28;20066;-49
2022/01/15 10:47:40;;;;;;;24.15;14.73;;;;;;;;;;5095130;28;20063;-47
2022/01/15 10:50:13;;;;;;;25.33;14.98;;;;;;;;;;5090543;28;20393;-47
2022/01/15 10:52:42;;;;;;;26.13;15.23;;;;;;;;;;5094953;28;20537;-48
2022/01/15 10:55:12;;;;;;;26.60;15.07;;;;;;;;;;5096528;28;20532;-48
2022/01/15 10:57:42;;;;;;;23.15;14.05;;;;;;;;;;5098129;28;20545;-48
2022/01/15 11:00:11;;;;;;;27.38;15.70;;;;;;;;;;5097636;28;20294;-49
2022/01/15 11:02:38;;;;;;;26.40;15.85;;;;;;;;;;5088651;28;20040;-48
2022/01/15 11:05:19;;;;;;;26.20;16.90;;;;;;;;;;5089322;28;20040;-49
2022/01/15 11:07:45;;;;;;;31.23;16.67;;;;;;;;;;5089847;28;20076;-48
2022/01/15 11:10:11;;;;;;;27.35;16.42;;;;;;;;;;5092515;28;20485;-47
2022/01/15 11:12:37;;;;;;;26.80;15.63;;;;;;;;;;5104218;28;20105;-49
2022/01/15 11:15:03;;;;;;;23.63;15.65;;;;;;;;;;5084713;28;20036;-48
2022/01/15 11:17:29;;;;;;;23.50;15.30;;;;;;;;;;5100320;28;20100;-48
2022/01/15 11:19:55;;;;;;;27.33;16.30;;;;;;;;;;5099987;28;20047;-48
2022/01/15 11:22:27;;;;;;;27.52;15.38;;;;;;;;;;5087402;28;20043;-47
2022/01/15 11:24:53;;;;;;;27.15;16.70;;;;;;;;;;5102551;28;20066;-49
2022/01/15 11:27:19;;;;;;;27.02;16.63;;;;;;;;;;5089562;28;20111;-50
2022/01/15 11:29:47;;;;;;;27.13;16.55;;;;;;;;;;5090013;28;20040;-49
2022/01/15 11:32:16;;;;;;;27.55;16.63;;;;;;;;;;5091904;28;20038;-46
2022/01/15 11:34:58;;;;;;;28.50;17.20;;;;;;;;;;5072660;28;20044;-47
2022/01/15 11:37:24;;;;;;;27.45;16.30;;;;;;;;;;5090280;28;20036;-48
2022/01/15 11:39:54;;;;;;;27.65;16.95;;;;;;;;;;5091513;28;20046;-47
2022/01/15 11:42:35;;;;;;;26.55;15.38;;;;;;;;;;5091066;28;20047;-49
2022/01/15 11:45:01;;;;;;;28.35;16.77;;;;;;;;;;5090042;28;20490;-49
2022/01/15 11:47:31;;;;;;;31.65;17.45;;;;;;;;;;5089431;28;20417;-49
2022/01/15 11:50:18;;;;;;;28.27;17.17;;;;;;;;;;5089041;28;20541;-49
2022/01/15 11:52:44;;;;;;;28.85;16.73;;;;;;;;;;5088667;28;20051;-49
2022/01/15 11:55:14;;;;;;;29.33;17.08;;;;;;;;;;5090358;28;20505;-47
2022/01/15 11:57:48;;;;;;;25.48;16.02;;;;;;;;;;5089952;28;20115;-47
2022/01/15 12:00:14;;;;;;;;;;;;;;;;;;5097666;28;20461;-49
2022/01/15 12:02:40;;;;;;;27.08;15.45;;;;;;;;;;5088034;28;19916;-49
2022/01/15 12:05:15;;;;;;;23.50;15.48;;;;;;;;;;5090680;28;20036;-49
2022/01/15 12:07:45;;;;;;;26.55;17.00;;;;;;;;;;5094856;28;20036;-51
2022/01/15 12:10:18;;;;;;;31.00;18.58;;;;;;;;;;5090297;28;20435;-50
2022/01/15 12:12:55;;;;;;;29.88;17.52;;;;;;;;;;5099827;28;20236;-50
2022/01/15 12:15:28;;;;;;;29.27;17.55;;;;;;;;;;5089539;28;20568;-48
2022/01/15 12:18:00;;;;;;;29.50;16.08;;;;;;;;;;5087889;28;20097;-51
2022/01/15 12:20:44;;;;;;;34.00;18.02;;;;;;;;;;5087438;28;20068;-48
2022/01/15 12:23:19;;;;;;;29.27;17.30;;;;;;;;;;5096703;28;20048;-48
2022/01/15 12:25:49;;;;;;;29.48;17.17;;;;;;;;;;5098270;28;20431;-49
2022/01/15 12:28:15;;;;;;;29.95;16.17;;;;;;;;;;5093397;28;20036;-48
2022/01/15 12:30:50;;;;;;;23.73;15.52;;;;;;;;;;5093171;28;20097;-48
2022/01/15 12:33:22;;;;;;;27.38;16.60;;;;;;;;;;5075346;28;20046;-48
2022/01/15 12:35:50;;;;;;;28.92;16.67;;;;;;;;;;5093523;28;20047;-47
2022/01/15 12:38:16;;;;;;;26.98;16.65;;;;;;;;;;5095386;28;20047;-49
2022/01/15 12:40:47;;;;;;;28.70;16.15;;;;;;;;;;5098190;28;20032;-50
2022/01/15 12:43:21;;;;;;;32.20;16.38;;;;;;;;;;5091614;28;20486;-50
2022/01/15 12:45:48;;;;;;;31.45;16.52;;;;;;;;;;5092120;28;20035;-48
2022/01/15 12:48:15;;;;;;;31.45;17.60;;;;;;;;;;5097821;28;20549;-49
2022/01/15 12:50:46;;;;;;;27.88;17.10;;;;;;;;;;5076134;28;20448;-49
2022/01/15 12:53:18;;;;;;;29.50;18.75;;;;;;;;;;5094907;28;20036;-49
2022/01/15 12:55:45;;;;;;;27.92;17.15;;;;;;;;;;5094950;28;20044;-49
2022/01/15 12:58:15;;;;;;;29.33;17.98;;;;;;;;;;5099907;28;20143;-49
2022/01/15 13:00:41;;;;;;;32.70;19.90;;;;;;;;;;5094153;28;20044;-50
2022/01/15 13:03:12;;;;;;;28.58;18.35;;;;;;;;;;5091883;28;20032;-48
2022/01/15 13:05:39;;;;;;;30.25;19.00;;;;;;;;;;5101245;28;20044;-49
2022/01/15 13:08:16;;;;;;;34.65;20.30;;;;;;;;;;5074863;28;20477;-49
2022/01/15 13:11:03;;;;;;;34.67;20.38;;;;;;;;;;5093232;28;20052;-48
2022/01/15 13:13:34;;;;;;;35.22;21.27;;;;;;;;;;5092890;28;20036;-48
2022/01/15 13:16:00;;;;;;;33.55;20.40;;;;;;;;;;5093037;28;20489;-49
2022/01/15 13:18:28;;;;;;;32.53;19.23;;;;;;;;;;5092048;28;20048;-49
2022/01/15 13:20:55;;;;;;;30.25;18.00;;;;;;;;;;5103048;28;20089;-49
2022/01/15 13:23:24;;;;;;;30.08;18.45;;;;;;;;;;5113113;28;20051;-48
2022/01/15 13:25:53;;;;;;;30.27;20.27;;;;;;;;;;5089669;28;20047;-51
2022/01/15 13:28:23;;;;;;;32.50;20.00;;;;;;;;;;5104608;28;20161;-48
2022/01/15 13:30:50;;;;;;;30.35;19.85;;;;;;;;;;5099965;28;20327;-49
2022/01/15 13:33:35;;;;;;;31.60;20.42;;;;;;;;;;5099339;28;20067;-51
2022/01/15 13:36:06;;;;;;;27.67;17.52;;;;;;;;;;5086926;28;20503;-46
2022/01/15 13:38:33;;;;;;;26.73;17.13;;;;;;;;;;5113001;28;20043;-51
2022/01/15 13:41:09;;;;;;;28.55;18.55;;;;;;;;;;5112946;28;20110;-51
2022/01/15 13:43:48;;;;;;;28.35;18.58;;;;;;;;;;5112701;28;20035;-48
2022/01/15 13:46:33;;;;;;;33.00;19.95;;;;;;;;;;5113310;28;20399;-47
2022/01/15 13:49:37;;;;;;;26.95;17.33;;;;;;;;;;5112701;28;20381;-47
2022/01/15 13:55:07;;;;;;;31.83;19.85;;;;;;;;;;5113111;28;20036;-50
2022/01/15 13:57:35;;;;;;;33.47;20.13;;;;;;;;;;5112696;28;20436;-50
2022/01/15 14:00:02;;;;;;;28.95;18.92;;;;;;;;;;5091701;28;20040;-52
2022/01/15 14:02:31;;;;;;;32.97;19.38;;;;;;;;;;5103939;28;20044;-48
2022/01/15 14:05:09;;;;;;;35.40;21.52;;;;;;;;;;5111562;28;20502;-49
2022/01/15 14:07:38;;;;;;;35.20;20.85;;;;;;;;;;5111341;28;20042;-49
2022/01/15 14:10:14;;;;;;;38.78;21.73;;;;;;;;;;5111445;28;20512;-48
2022/01/15 14:12:40;;;;;;;36.33;22.42;;;;;;;;;;5091714;28;20058;-48
2022/01/15 14:15:15;;;;;;;36.95;23.17;;;;;;;;;;5111410;28;20112;-48
2022/01/15 14:17:48;;;;;;;34.60;22.20;;;;;;;;;;5111091;28;20178;-48
2022/01/15 14:20:39;;;;;;;35.70;22.13;;;;;;;;;;5092908;28;20454;-48
2022/01/15 14:23:07;;;;;;;38.65;24.00;;;;;;;;;;5109225;28;20074;-48
2022/01/15 14:25:44;;;;;;;41.20;23.55;;;;;;;;;;5110977;28;20122;-49
2022/01/15 14:28:22;;;;;;;40.50;23.17;;;;;;;;;;5093196;28;20083;-49
2022/01/15 14:30:50;;;;;;;41.00;22.38;;;;;;;;;;5111696;28;20043;-47
2022/01/15 14:33:29;;;;;;;42.60;23.48;;;;;;;;;;5111599;28;20137;-49
2022/01/15 14:35:55;;;;;;;41.28;23.55;;;;;;;;;;5111795;28;20496;-49
2022/01/15 14:38:22;;;;;;;41.10;22.90;;;;;;;;;;5111837;28;20044;-48
2022/01/15 14:40:49;;;;;;;43.88;25.15;;;;;;;;;;5111873;28;20118;-49
2022/01/15 14:43:15;;;;;;;41.95;25.60;;;;;;;;;;5111247;28;20514;-49
2022/01/15 14:45:50;;;;;;;45.42;24.98;;;;;;;;;;5111569;28;20093;-51
2022/01/15 14:48:16;;;;;;;45.55;26.75;;;;;;;;;;5110398;28;20039;-51
2022/01/15 14:50:44;;;;;;;42.17;24.15;;;;;;;;;;5109655;28;20252;-48
2022/01/15 14:53:10;;;;;;;41.25;25.65;;;;;;;;;;5110103;28;20490;-47
2022/01/15 14:55:45;;;;;;;36.28;22.77;;;;;;;;;;5110531;28;20040;-47
2022/01/15 14:58:11;;;;;;;38.60;22.90;;;;;;;;;;5111180;28;20043;-48
2022/01/15 15:00:37;;;;;;;38.40;21.63;;;;;;;;;;5110687;28;20035;-47
2022/01/15 15:03:03;;;;;;;36.15;20.60;;;;;;;;;;5091955;28;20055;-49
2022/01/15 15:05:29;;;;;;;39.30;24.15;;;;;;;;;;5110980;28;20043;-48